createdAt,value
2019-01-27T00:00:12.948Z,96143.75
2019-01-27T00:02:14.582Z,96142.95
2019-01-27T00:04:16.164Z,96141.48
2019-01-27T00:06:17.814Z,96134.11
2019-01-27T00:08:19.422Z,96135.52
2019-01-27T00:10:21.071Z,96131.33
2019-01-27T00:12:22.694Z,96131.39
2019-01-27T00:14:24.299Z,96127.66
2019-01-27T00:16:25.888Z,96124.75
2019-01-27T00:18:27.513Z,96121.43
2019-01-27T00:20:29.115Z,96114.22
2019-01-27T00:22:30.756Z,96112.91
2019-01-27T00:24:32.354Z,96113.52
2019-01-27T00:26:33.950Z,96106.59
2019-01-27T00:28:35.575Z,96106.23
2019-01-27T00:30:37.183Z,96103.30
2019-01-27T00:32:38.772Z,96096.34
2019-01-27T00:34:40.376Z,96104.25
2019-01-27T00:36:41.974Z,96101.70
2019-01-27T00:38:43.580Z,96101.22
2019-01-27T00:40:45.260Z,96092.28
2019-01-27T00:42:46.914Z,96088.11
2019-01-27T00:44:48.501Z,96090.84
2019-01-27T00:46:50.084Z,96090.84
2019-01-27T00:48:51.687Z,96090.56
2019-01-27T00:50:53.316Z,96088.41
2019-01-27T00:52:54.923Z,96086.97
2019-01-27T00:54:56.521Z,96083.64
2019-01-27T00:56:58.117Z,96079.30
2019-01-27T00:58:59.735Z,96073.09
2019-01-27T01:01:01.324Z,96070.34
2019-01-27T01:03:02.951Z,96070.11
2019-01-27T01:05:04.532Z,96066.50
2019-01-27T01:07:06.133Z,96065.56
2019-01-27T01:09:07.716Z,96068.44
2019-01-27T01:11:09.309Z,96072.20
2019-01-27T01:13:10.920Z,96066.43
2019-01-27T01:15:12.561Z,96060.77
2019-01-27T01:17:14.160Z,96063.33
2019-01-27T01:19:15.753Z,96059.59
2019-01-27T01:21:17.356Z,96057.55
2019-01-27T01:23:19.273Z,96061.75
2019-01-27T01:25:20.897Z,96056.12
2019-01-27T01:27:22.549Z,96058.37
2019-01-27T01:29:24.153Z,96056.42
2019-01-27T01:31:25.755Z,96018.25
2019-01-27T01:33:27.377Z,96055.77
2019-01-27T01:35:29.001Z,96049.97
2019-01-27T01:37:30.675Z,96048.95
2019-01-27T01:39:32.264Z,96052.09
2019-01-27T01:41:33.872Z,96044.69
2019-01-27T01:43:35.925Z,96046.38
2019-01-27T01:45:37.564Z,96044.27
2019-01-27T01:47:39.177Z,96040.28
2019-01-27T01:49:40.777Z,96031.89
2019-01-27T01:51:42.374Z,96022.13
2019-01-27T01:53:43.963Z,96014.18
2019-01-27T01:55:45.561Z,96012.42
2019-01-27T01:57:47.228Z,96004.45
2019-01-27T01:59:48.826Z,95999.75
2019-01-27T02:01:50.421Z,95996.30
2019-01-27T02:03:52.023Z,95992.95
2019-01-27T02:05:53.631Z,95990.38
2019-01-27T02:07:55.274Z,95987.14
2019-01-27T02:09:56.874Z,95974.42
2019-01-27T02:11:58.488Z,95974.19
2019-01-27T02:14:00.086Z,95969.05
2019-01-27T02:16:01.696Z,95967.97
2019-01-27T02:18:03.304Z,95966.93
2019-01-27T02:20:04.893Z,95927.59
2019-01-27T02:22:06.502Z,95959.61
2019-01-27T02:24:08.112Z,95958.13
2019-01-27T02:26:09.727Z,95949.64
2019-01-27T02:28:11.350Z,95944.63
2019-01-27T02:30:12.946Z,95950.19
2019-01-27T02:32:14.545Z,95944.63
2019-01-27T02:34:16.137Z,95950.84
2019-01-27T02:36:17.730Z,95947.14
2019-01-27T02:38:19.325Z,95941.23
2019-01-27T02:40:20.947Z,95929.68
2019-01-27T02:42:22.541Z,95930.70
2019-01-27T02:44:24.129Z,95928.07
2019-01-27T02:46:25.731Z,95917.13
2019-01-27T02:48:27.361Z,95920.82
2019-01-27T02:50:28.976Z,95876.42
2019-01-27T02:52:30.714Z,95907.26
2019-01-27T02:54:32.362Z,95899.66
2019-01-27T02:56:33.973Z,95892.94
2019-01-27T02:58:35.612Z,95887.38
2019-01-27T03:00:37.237Z,95884.00
2019-01-27T03:02:38.864Z,95879.30
2019-01-27T03:04:40.462Z,95876.34
2019-01-27T03:06:43.818Z,95870.30
2019-01-27T03:08:45.462Z,95865.53
2019-01-27T03:10:47.061Z,95856.19
2019-01-27T03:12:48.682Z,95857.88
2019-01-27T03:14:50.300Z,95852.59
2019-01-27T03:16:51.900Z,95853.73
2019-01-27T03:18:53.542Z,95851.11
2019-01-27T03:20:55.156Z,95840.89
2019-01-27T03:22:56.767Z,95841.75
2019-01-27T03:24:58.415Z,95833.61
2019-01-27T03:27:00.031Z,95839.13
2019-01-27T03:29:01.630Z,95839.05
2019-01-27T03:31:03.282Z,95833.34
2019-01-27T03:33:04.889Z,95825.82
2019-01-27T03:35:06.489Z,95830.52
2019-01-27T03:37:08.085Z,95819.92
2019-01-27T03:39:09.696Z,95814.95
2019-01-27T03:41:11.293Z,95819.75
2019-01-27T03:43:12.933Z,95804.84
2019-01-27T03:45:14.519Z,95803.17
2019-01-27T03:47:16.100Z,95798.44
2019-01-27T03:49:17.707Z,95795.58
2019-01-27T03:51:19.371Z,95797.72
2019-01-27T03:53:20.977Z,95790.23
2019-01-27T03:55:22.563Z,95788.58
2019-01-27T03:57:24.212Z,95776.84
2019-01-27T03:59:25.811Z,95773.26
2019-01-27T04:01:27.412Z,95777.64
2019-01-27T04:03:29.059Z,95767.43
2019-01-27T04:05:30.674Z,95772.20
2019-01-27T04:07:32.274Z,95772.20
2019-01-27T04:09:33.878Z,95769.30
2019-01-27T04:11:35.512Z,95759.94
2019-01-27T04:13:37.119Z,95756.98
2019-01-27T04:15:38.742Z,95753.63
2019-01-27T04:17:40.338Z,95744.73
2019-01-27T04:19:41.941Z,95746.42
2019-01-27T04:21:43.557Z,95746.08
2019-01-27T04:23:45.171Z,95739.73
2019-01-27T04:25:46.793Z,95736.27
2019-01-27T04:27:48.407Z,95731.47
2019-01-27T04:29:50.005Z,95741.27
2019-01-27T04:31:51.599Z,95737.84
2019-01-27T04:33:53.260Z,95735.66
2019-01-27T04:35:54.871Z,95733.97
2019-01-27T04:37:56.486Z,95731.34
2019-01-27T04:39:58.119Z,95729.96
2019-01-27T04:41:59.722Z,95730.95
2019-01-27T04:44:01.333Z,95728.53
2019-01-27T04:46:02.975Z,95722.98
2019-01-27T04:48:04.586Z,95719.11
2019-01-27T04:50:06.189Z,95714.53
2019-01-27T04:52:07.795Z,95710.18
2019-01-27T04:54:09.399Z,95704.05
2019-01-27T04:56:11.007Z,95697.55
2019-01-27T04:58:12.693Z,95697.80
2019-01-27T05:00:14.273Z,95688.18
2019-01-27T05:02:15.870Z,95681.19
2019-01-27T05:04:17.475Z,95683.41
2019-01-27T05:06:19.083Z,95675.13
2019-01-27T05:08:20.683Z,95670.84
2019-01-27T05:10:22.336Z,95677.80
2019-01-27T05:12:23.951Z,95668.52
2019-01-27T05:14:25.554Z,95673.21
2019-01-27T05:16:27.158Z,95663.38
2019-01-27T05:18:28.757Z,95658.72
2019-01-27T05:20:30.358Z,95667.49
2019-01-27T05:22:31.958Z,95672.33
2019-01-27T05:24:33.553Z,95632.81
2019-01-27T05:26:35.151Z,95665.95
2019-01-27T05:28:36.760Z,95663.02
2019-01-27T05:30:38.461Z,95660.02
2019-01-27T05:32:40.072Z,95660.47
2019-01-27T05:34:41.684Z,95650.03
2019-01-27T05:36:43.288Z,95651.58
2019-01-27T05:38:44.945Z,95643.64
2019-01-27T05:40:46.538Z,95644.92
2019-01-27T05:42:48.773Z,95647.33
2019-01-27T05:44:50.401Z,95633.33
2019-01-27T05:46:52.008Z,95637.54
2019-01-27T05:48:53.604Z,95631.91
2019-01-27T05:50:55.211Z,95630.89
2019-01-27T05:52:56.795Z,95618.87
2019-01-27T05:54:58.435Z,95627.55
2019-01-27T05:57:00.033Z,95630.30
2019-01-27T05:59:01.647Z,95617.03
2019-01-27T06:01:03.286Z,95620.86
2019-01-27T06:03:04.870Z,95620.38
2019-01-27T06:05:06.497Z,95613.50
2019-01-27T06:07:08.107Z,95611.55
2019-01-27T06:09:09.705Z,95601.81
2019-01-27T06:11:11.288Z,95609.96
2019-01-27T06:13:12.910Z,95599.82
2019-01-27T06:15:14.547Z,95595.69
2019-01-27T06:17:16.132Z,95601.55
2019-01-27T06:19:17.739Z,95594.94
2019-01-27T06:21:19.337Z,95589.30
2019-01-27T06:23:21.313Z,95589.08
2019-01-27T06:25:26.024Z,95594.85
2019-01-27T06:27:24.623Z,95600.14
2019-01-27T06:29:26.249Z,95590.98
2019-01-27T06:31:27.847Z,95593.23
2019-01-27T06:33:29.451Z,95582.34
2019-01-27T06:35:31.086Z,95587.89
2019-01-27T06:37:32.686Z,95587.50
2019-01-27T06:39:34.322Z,95586.47
2019-01-27T06:41:35.935Z,95582.14
2019-01-27T06:43:37.529Z,95581.61
2019-01-27T06:45:39.151Z,95579.06
2019-01-27T06:47:40.735Z,95564.47
2019-01-27T06:49:42.319Z,95564.73
2019-01-27T06:51:43.914Z,95557.83
2019-01-27T06:53:45.509Z,95564.44
2019-01-27T06:55:47.119Z,95570.59
2019-01-27T06:57:48.802Z,95560.51
2019-01-27T06:59:56.027Z,95562.73
2019-01-27T07:01:57.622Z,95565.63
2019-01-27T07:03:59.242Z,95563.27
2019-01-27T07:06:02.249Z,95569.66
2019-01-27T07:08:03.843Z,95566.69
2019-01-27T07:10:06.956Z,95559.06
2019-01-27T07:12:12.071Z,95563.18
2019-01-27T07:14:20.750Z,95558.55
2019-01-27T07:16:33.561Z,95555.23
2019-01-27T07:18:40.885Z,95551.86
2019-01-27T07:20:52.433Z,95551.75
2019-01-27T07:23:11.823Z,95548.08
2019-01-27T07:25:16.846Z,95543.65
2019-01-27T07:27:37.129Z,95541.28
2019-01-27T07:29:39.213Z,95541.75
2019-01-27T07:31:41.615Z,95552.90
2019-01-27T07:33:58.090Z,95538.52
2019-01-27T07:36:00.324Z,95538.75
2019-01-27T07:38:03.534Z,95529.38
2019-01-27T07:40:17.902Z,95534.91
2019-01-27T07:42:19.978Z,95525.02
2019-01-27T07:44:21.606Z,95515.52
2019-01-27T07:46:23.851Z,95516.00
2019-01-27T07:48:29.910Z,95509.20
2019-01-27T07:50:33.036Z,95504.47
2019-01-27T07:52:35.609Z,95506.20
2019-01-27T07:54:42.159Z,95497.34
2019-01-27T07:56:58.640Z,95501.17
2019-01-27T07:59:04.907Z,95498.51
2019-01-27T08:01:09.936Z,95500.95
2019-01-27T08:03:13.958Z,95498.66
2019-01-27T08:05:33.174Z,95498.94
2019-01-27T08:07:36.462Z,95490.45
2019-01-27T08:09:48.875Z,95483.95
2019-01-27T08:11:51.089Z,95481.81
2019-01-27T08:13:55.209Z,95482.22
2019-01-27T08:15:59.549Z,95490.48
2019-01-27T08:18:02.827Z,95486.80
2019-01-27T08:20:06.966Z,95489.32
2019-01-27T08:22:08.561Z,95487.67
2019-01-27T08:24:23.857Z,95483.58
2019-01-27T08:26:31.085Z,95482.87
2019-01-27T08:28:44.347Z,95477.80
2019-01-27T08:30:46.423Z,95477.84
2019-01-27T08:32:48.061Z,95471.87
2019-01-27T08:35:01.342Z,95477.31
2019-01-27T08:37:05.460Z,95475.73
2019-01-27T08:39:09.697Z,95478.66
2019-01-27T08:41:26.173Z,95477.06
2019-01-27T08:43:48.468Z,95479.48
2019-01-27T08:45:50.799Z,95483.34
2019-01-27T08:47:52.413Z,95486.17
2019-01-27T08:49:54.010Z,95480.02
2019-01-27T08:51:55.676Z,95479.98
2019-01-27T08:53:57.274Z,95471.68
2019-01-27T08:55:58.869Z,95471.46
2019-01-27T08:58:00.508Z,95464.95
2019-01-27T09:00:02.100Z,95467.97
2019-01-27T09:02:06.345Z,95463.53
2019-01-27T09:04:10.614Z,95465.59
2019-01-27T09:06:12.981Z,95468.30
2019-01-27T09:08:29.443Z,95458.91
2019-01-27T09:10:45.964Z,95454.92
2019-01-27T09:13:11.030Z,95451.14
2019-01-27T09:15:07.674Z,95444.27
2019-01-27T09:17:23.239Z,95446.25
2019-01-27T09:19:25.450Z,95446.25
2019-01-27T09:21:29.566Z,95418.94
2019-01-27T09:23:46.617Z,95447.08
2019-01-27T09:25:48.200Z,95449.89
2019-01-27T09:27:55.515Z,95453.65
2019-01-27T09:30:02.857Z,95450.23
2019-01-27T09:32:10.095Z,95454.52
2019-01-27T09:34:32.581Z,95461.72
2019-01-27T09:36:50.971Z,95451.02
2019-01-27T09:38:52.614Z,95450.64
2019-01-27T09:40:56.096Z,95422.08
2019-01-27T09:43:04.282Z,95446.36
2019-01-27T09:45:06.372Z,95441.66
2019-01-27T09:47:26.734Z,95447.64
2019-01-27T09:49:28.948Z,95443.44
2019-01-27T09:51:31.064Z,95440.09
2019-01-27T09:53:35.142Z,95434.98
2019-01-27T09:55:40.565Z,95424.84
2019-01-27T09:57:46.924Z,95414.63
2019-01-27T09:59:48.518Z,95404.98
2019-01-27T10:01:58.872Z,95409.95
2019-01-27T10:04:06.399Z,95409.80
2019-01-27T10:06:22.887Z,95419.33
2019-01-27T10:08:44.368Z,95412.34
2019-01-27T10:10:47.708Z,95405.06
2019-01-27T10:12:54.863Z,95401.81
2019-01-27T10:14:57.239Z,95398.14
2019-01-27T10:17:06.563Z,95399.35
2019-01-27T10:19:08.162Z,95400.14
2019-01-27T10:21:22.603Z,95398.89
2019-01-27T10:23:25.099Z,95392.80
2019-01-27T10:25:31.191Z,95389.33
2019-01-27T10:27:36.605Z,95395.36
2019-01-27T10:29:39.770Z,95230.80
2019-01-27T10:31:44.114Z,95386.47
2019-01-27T10:33:45.709Z,95377.84
2019-01-27T10:35:50.059Z,95371.09
2019-01-27T10:38:01.573Z,95358.77
2019-01-27T10:40:09.276Z,95356.87
2019-01-27T10:42:19.165Z,95356.00
2019-01-27T10:44:35.645Z,95354.10
2019-01-27T10:46:42.937Z,95353.98
2019-01-27T10:48:45.457Z,95350.73
2019-01-27T10:50:58.779Z,95359.25
2019-01-27T10:53:07.805Z,95348.77
2019-01-27T10:55:11.797Z,95349.53
2019-01-27T10:57:13.956Z,95349.69
2019-01-27T10:59:17.110Z,95346.31
2019-01-27T11:01:37.348Z,95345.25
2019-01-27T11:03:53.825Z,95343.00
2019-01-27T11:06:01.033Z,95343.98
2019-01-27T11:08:06.094Z,95344.39
2019-01-27T11:10:08.233Z,95338.72
2019-01-27T11:12:14.622Z,95343.93
2019-01-27T11:14:32.965Z,95342.27
2019-01-27T11:16:40.365Z,95346.91
2019-01-27T11:18:44.788Z,95346.47
2019-01-27T11:20:49.307Z,95341.09
2019-01-27T11:22:54.356Z,95328.14
2019-01-27T11:24:57.696Z,95310.09
2019-01-27T11:26:59.864Z,95321.73
2019-01-27T11:29:02.869Z,95315.14
2019-01-27T11:31:10.257Z,95308.14
2019-01-27T11:33:20.499Z,95302.22
2019-01-27T11:35:23.026Z,95298.59
2019-01-27T11:37:35.471Z,95292.98
2019-01-27T11:39:53.835Z,95291.91
2019-01-27T11:42:00.006Z,95285.00
2019-01-27T11:44:17.276Z,95288.17
2019-01-27T11:46:18.888Z,95278.24
2019-01-27T11:48:21.404Z,95269.67
2019-01-27T11:50:23.041Z,95274.83
2019-01-27T11:52:24.643Z,95265.42
2019-01-27T11:54:26.241Z,95268.92
2019-01-27T11:56:27.858Z,95271.23
2019-01-27T11:58:29.458Z,95267.23
2019-01-27T12:00:31.378Z,95277.20
2019-01-27T12:02:35.835Z,95271.92
2019-01-27T12:04:37.434Z,95265.81
2019-01-27T12:06:39.093Z,95259.63
2019-01-27T12:08:40.694Z,95262.80
2019-01-27T12:10:42.314Z,95254.02
2019-01-27T12:12:44.022Z,95259.17
2019-01-27T12:14:45.619Z,95253.97
2019-01-27T12:16:47.246Z,95262.29
2019-01-27T12:18:49.828Z,95258.81
2019-01-27T12:20:50.527Z,95258.23
2019-01-27T12:22:52.140Z,95250.24
2019-01-27T12:24:53.796Z,95255.50
2019-01-27T12:26:55.405Z,95247.96
2019-01-27T12:28:57.015Z,95245.61
2019-01-27T12:30:58.604Z,95243.39
2019-01-27T12:33:00.197Z,95235.94
2019-01-27T12:35:01.793Z,95241.86
2019-01-27T12:37:03.379Z,95241.11
2019-01-27T12:39:04.991Z,95251.25
2019-01-27T12:41:06.682Z,95253.42
2019-01-27T12:43:08.418Z,95256.88
2019-01-27T12:45:10.106Z,95258.87
2019-01-27T12:47:11.760Z,95257.84
2019-01-27T12:49:13.373Z,95257.16
2019-01-27T12:51:14.984Z,95239.81
2019-01-27T12:53:16.605Z,95244.72
2019-01-27T12:55:18.258Z,95244.07
2019-01-27T12:57:19.905Z,95249.59
2019-01-27T12:59:21.565Z,95240.69
2019-01-27T13:01:23.206Z,95233.03
2019-01-27T13:03:24.843Z,95241.27
2019-01-27T13:05:26.468Z,95241.20
2019-01-27T13:07:28.075Z,95228.43
2019-01-27T13:09:29.765Z,95222.00
2019-01-27T13:11:31.374Z,95226.50
2019-01-27T13:13:32.996Z,95228.14
2019-01-27T13:15:34.763Z,95244.08
2019-01-27T13:17:36.479Z,95242.80
2019-01-27T13:19:38.099Z,95238.44
2019-01-27T13:21:40.660Z,95228.06
2019-01-27T13:23:42.271Z,95221.80
2019-01-27T13:25:43.866Z,95226.05
2019-01-27T13:27:45.521Z,95212.25
2019-01-27T13:29:47.113Z,95218.97
2019-01-27T13:31:49.373Z,95219.25
2019-01-27T13:33:51.003Z,95211.97
2019-01-27T13:35:52.655Z,95203.16
2019-01-27T13:37:55.169Z,95192.11
2019-01-27T13:39:56.821Z,95190.84
2019-01-27T13:41:58.465Z,95191.83
2019-01-27T13:44:00.113Z,95186.14
2019-01-27T13:46:01.758Z,95176.59
2019-01-27T13:48:03.362Z,95178.07
2019-01-27T13:50:04.966Z,95184.78
2019-01-27T13:52:06.586Z,95176.95
2019-01-27T13:54:08.437Z,95173.63
2019-01-27T13:56:10.892Z,95173.17
2019-01-27T13:58:12.494Z,95176.25
2019-01-27T14:00:14.128Z,95176.83
2019-01-27T14:02:15.712Z,95177.12
2019-01-27T14:04:17.331Z,95177.32
2019-01-27T14:06:18.948Z,95178.72
2019-01-27T14:08:20.562Z,95176.95
2019-01-27T14:10:22.192Z,95167.98
2019-01-27T14:12:23.776Z,95169.05
2019-01-27T14:14:25.359Z,95165.30
2019-01-27T14:16:26.953Z,95158.91
2019-01-27T14:18:28.554Z,95158.67
2019-01-27T14:20:30.197Z,95159.81
2019-01-27T14:22:32.046Z,95165.12
2019-01-27T14:24:33.647Z,95158.91
2019-01-27T14:26:35.284Z,95158.75
2019-01-27T14:28:36.901Z,95160.97
2019-01-27T14:30:38.514Z,95159.36
2019-01-27T14:32:40.169Z,95164.77
2019-01-27T14:34:41.769Z,95165.34
2019-01-27T14:36:43.365Z,95153.69
2019-01-27T14:38:44.977Z,95153.64
2019-01-27T14:40:46.723Z,95148.53
2019-01-27T14:42:48.336Z,95150.31
2019-01-27T14:44:50.008Z,95148.94
2019-01-27T14:46:51.707Z,95146.02
2019-01-27T14:48:53.451Z,95150.80
2019-01-27T14:50:55.076Z,95151.09
2019-01-27T14:52:56.702Z,95157.27
2019-01-27T14:54:58.313Z,95132.27
2019-01-27T14:56:59.910Z,95148.85
2019-01-27T14:59:01.507Z,95149.29
2019-01-27T15:01:03.134Z,95149.11
2019-01-27T15:03:04.740Z,95152.02
2019-01-27T15:05:06.365Z,95153.52
2019-01-27T15:07:07.956Z,95146.80
2019-01-27T15:09:10.339Z,95151.83
2019-01-27T15:11:12.008Z,95143.69
2019-01-27T15:13:13.631Z,95146.97
2019-01-27T15:15:15.260Z,95142.81
2019-01-27T15:17:16.940Z,95144.23
2019-01-27T15:19:18.573Z,95137.95
2019-01-27T15:21:20.185Z,95138.14
2019-01-27T15:23:21.777Z,95146.16
2019-01-27T15:25:23.415Z,95130.13
2019-01-27T15:27:25.010Z,95136.42
2019-01-27T15:29:26.623Z,95126.56
2019-01-27T15:31:28.226Z,95120.52
2019-01-27T15:33:29.854Z,95118.14
2019-01-27T15:35:31.472Z,95120.65
2019-01-27T15:37:33.135Z,95123.19
2019-01-27T15:39:35.180Z,95120.98
2019-01-27T15:41:36.776Z,95122.52
2019-01-27T15:43:38.403Z,95122.26
2019-01-27T15:45:40.016Z,95120.69
2019-01-27T15:47:41.603Z,95127.07
2019-01-27T15:49:43.201Z,95135.55
2019-01-27T15:51:44.807Z,95132.15
2019-01-27T15:53:46.439Z,95138.91
2019-01-27T15:55:48.065Z,95138.41
2019-01-27T15:57:49.720Z,95134.37
2019-01-27T15:59:51.323Z,95129.84
2019-01-27T16:01:52.951Z,95133.67
2019-01-27T16:03:54.536Z,95135.36
2019-01-27T16:05:56.167Z,95142.48
2019-01-27T16:07:57.786Z,95133.45
2019-01-27T16:09:59.391Z,95143.41
2019-01-27T16:12:01.059Z,95150.22
2019-01-27T16:14:02.663Z,95147.80
2019-01-27T16:16:04.276Z,95156.27
2019-01-27T16:18:05.913Z,95157.00
2019-01-27T16:20:07.513Z,95146.98
2019-01-27T16:22:09.115Z,95148.16
2019-01-27T16:24:10.727Z,95149.69
2019-01-27T16:26:12.376Z,95157.13
2019-01-27T16:28:13.992Z,95152.51
2019-01-27T16:30:16.226Z,95146.44
2019-01-27T16:32:17.914Z,95152.59
2019-01-27T16:34:19.638Z,95156.48
2019-01-27T16:36:21.264Z,95143.88
2019-01-27T16:38:22.877Z,95148.98
2019-01-27T16:40:24.464Z,95144.09
2019-01-27T16:42:26.067Z,95151.92
2019-01-27T16:44:27.690Z,95144.95
2019-01-27T16:46:29.286Z,95147.22
2019-01-27T16:48:30.915Z,95144.25
2019-01-27T16:50:32.556Z,95137.30
2019-01-27T16:52:34.189Z,95144.80
2019-01-27T16:54:35.845Z,95139.27
2019-01-27T16:56:37.458Z,95139.97
2019-01-27T16:58:39.068Z,95138.94
2019-01-27T17:00:40.670Z,95137.75
2019-01-27T17:02:42.308Z,95133.13
2019-01-27T17:04:43.993Z,95139.57
2019-01-27T17:06:45.622Z,95140.09
2019-01-27T17:08:47.217Z,95144.67
2019-01-27T17:10:48.890Z,95140.71
2019-01-27T17:12:50.499Z,95136.45
2019-01-27T17:14:52.111Z,95140.95
2019-01-27T17:16:53.753Z,95142.65
2019-01-27T17:18:55.370Z,95144.88
2019-01-27T17:20:57.045Z,95145.66
2019-01-27T17:22:58.659Z,95144.02
2019-01-27T17:25:00.272Z,95151.36
2019-01-27T17:27:01.892Z,95154.13
2019-01-27T17:29:04.184Z,95115.71
2019-01-27T17:31:05.785Z,95144.73
2019-01-27T17:33:07.397Z,95143.09
2019-01-27T17:35:08.990Z,95136.66
2019-01-27T17:37:10.656Z,95137.22
2019-01-27T17:39:12.258Z,95127.16
2019-01-27T17:41:13.854Z,95114.25
2019-01-27T17:43:15.464Z,95134.21
2019-01-27T17:45:17.062Z,95134.16
2019-01-27T17:47:18.658Z,95133.39
2019-01-27T17:49:20.277Z,95129.80
2019-01-27T17:51:21.879Z,95130.43
2019-01-27T17:53:23.477Z,95137.13
2019-01-27T17:55:41.886Z,95134.32
2019-01-27T17:57:44.454Z,95131.09
2019-01-27T17:59:46.139Z,95120.98
2019-01-27T18:01:53.471Z,95121.65
2019-01-27T18:03:55.071Z,95119.03
2019-01-27T18:06:11.466Z,95114.66
2019-01-27T18:08:13.078Z,95112.22
2019-01-27T18:10:18.515Z,95115.84
2019-01-27T18:12:30.044Z,95116.78
2019-01-27T18:14:31.656Z,95116.66
2019-01-27T18:16:33.289Z,95114.81
2019-01-27T18:18:34.886Z,95120.47
2019-01-27T18:20:36.496Z,95105.52
2019-01-27T18:22:38.147Z,95105.59
2019-01-27T18:24:39.742Z,95109.58
2019-01-27T18:26:41.348Z,95109.34
2019-01-27T18:28:42.974Z,95116.05
2019-01-27T18:30:44.581Z,95117.27
2019-01-27T18:32:46.251Z,95117.83
2019-01-27T18:34:48.000Z,95117.84
2019-01-27T18:36:49.659Z,95118.94
2019-01-27T18:38:51.345Z,95128.46
2019-01-27T18:40:52.953Z,95130.52
2019-01-27T18:42:54.565Z,95128.05
2019-01-27T18:44:56.165Z,95131.09
2019-01-27T18:46:58.659Z,95126.39
2019-01-27T18:49:00.263Z,95134.83
2019-01-27T18:51:01.889Z,95130.02
2019-01-27T18:53:03.520Z,95129.33
2019-01-27T18:55:11.046Z,95117.50
2019-01-27T18:57:13.308Z,95117.84
2019-01-27T18:59:20.827Z,95120.96
2019-01-27T19:04:24.615Z,95095.77
2019-01-27T19:06:30.149Z,95109.80
2019-01-27T19:08:33.853Z,95104.66
2019-01-27T19:10:45.379Z,95109.72
2019-01-27T19:12:47.919Z,95109.13
2019-01-27T19:14:55.239Z,95107.18
2019-01-27T19:17:02.356Z,95110.38
2019-01-27T19:19:10.749Z,95114.68
2019-01-27T19:21:12.870Z,95104.82
2019-01-27T19:23:16.013Z,95105.10
2019-01-27T19:25:33.499Z,95100.92
2019-01-27T19:27:39.791Z,95108.50
2019-01-27T19:29:46.150Z,95114.64
2019-01-27T19:31:51.399Z,95114.44
2019-01-27T19:33:55.629Z,95116.73
2019-01-27T19:36:02.880Z,95109.08
2019-01-27T19:38:19.358Z,95118.20
2019-01-27T19:40:35.843Z,95109.70
2019-01-27T19:42:55.142Z,95110.31
2019-01-27T19:45:06.690Z,95117.58
2019-01-27T19:47:23.976Z,95119.49
2019-01-27T19:49:40.503Z,95114.63
2019-01-27T19:51:42.568Z,95112.66
2019-01-27T19:53:47.069Z,95115.36
2019-01-27T19:55:52.666Z,95112.84
2019-01-27T19:57:56.001Z,95113.02
2019-01-27T20:00:12.555Z,95110.92
2019-01-27T20:02:29.109Z,95120.17
2019-01-27T20:04:32.468Z,95117.78
2019-01-27T20:06:39.871Z,95118.52
2019-01-27T20:08:42.989Z,95117.15
2019-01-27T20:10:47.591Z,95122.78
2019-01-27T20:13:08.621Z,95118.25
2019-01-27T20:15:11.435Z,95125.61
2019-01-27T20:17:27.913Z,95128.58
2019-01-27T20:19:33.197Z,95122.59
2019-01-27T20:21:35.340Z,95122.83
2019-01-27T20:23:41.855Z,95127.77
2019-01-27T20:25:47.188Z,95115.39
2019-01-27T20:27:52.424Z,95121.66
2019-01-27T20:30:09.862Z,95120.20
2019-01-27T20:32:12.222Z,95122.84
2019-01-27T20:34:19.654Z,95113.30
2019-01-27T20:36:22.139Z,95120.53
2019-01-27T20:38:28.156Z,95126.29
2019-01-27T20:40:31.421Z,95124.31
2019-01-27T20:42:33.021Z,95117.14
2019-01-27T20:44:34.680Z,95115.59
2019-01-27T20:46:37.201Z,95112.66
2019-01-27T20:48:40.243Z,95092.67
2019-01-27T20:50:48.368Z,95120.60
2019-01-27T20:52:50.746Z,95115.44
2019-01-27T20:54:58.037Z,95096.84
2019-01-27T20:57:04.132Z,95125.77
2019-01-27T20:59:20.614Z,95122.23
2019-01-27T21:01:37.825Z,95135.48
2019-01-27T21:03:56.121Z,95142.34
2019-01-27T21:05:58.779Z,95145.43
2019-01-27T21:08:06.962Z,95145.55
2019-01-27T21:10:14.063Z,95149.72
2019-01-27T21:12:18.612Z,95142.28
2019-01-27T21:14:21.032Z,95137.94
2019-01-27T21:16:24.550Z,95138.73
2019-01-27T21:18:29.989Z,95137.05
2019-01-27T21:20:31.586Z,95144.33
2019-01-27T21:22:33.185Z,95138.90
2019-01-27T21:24:34.816Z,95137.20
2019-01-27T21:26:36.413Z,95140.58
2019-01-27T21:28:38.024Z,95138.72
2019-01-27T21:30:39.634Z,95132.75
2019-01-27T21:32:41.248Z,95135.13
2019-01-27T21:34:42.850Z,95131.65
2019-01-27T21:36:44.482Z,95137.83
2019-01-27T21:38:46.082Z,95132.06
2019-01-27T21:40:47.684Z,95139.92
2019-01-27T21:42:49.312Z,95142.56
2019-01-27T21:44:50.909Z,95146.76
2019-01-27T21:46:52.505Z,95156.47
2019-01-27T21:48:54.111Z,95166.00
2019-01-27T21:50:55.696Z,95166.48
2019-01-27T21:52:57.290Z,95170.31
2019-01-27T21:54:58.893Z,95172.55
2019-01-27T21:57:00.533Z,95171.44
2019-01-27T21:59:02.174Z,95173.29
2019-01-27T22:01:03.760Z,95168.34
2019-01-27T22:03:05.356Z,95174.07
2019-01-27T22:05:06.994Z,95169.22
2019-01-27T22:07:08.599Z,95171.77
2019-01-27T22:09:10.204Z,95169.02
2019-01-27T22:11:11.801Z,95165.59
2019-01-27T22:13:13.401Z,95167.33
2019-01-27T22:15:14.997Z,95166.73
2019-01-27T22:17:16.650Z,95167.20
2019-01-27T22:19:18.260Z,95163.94
2019-01-27T22:21:19.873Z,95160.52
2019-01-27T22:23:21.474Z,95161.43
2019-01-27T22:25:23.070Z,95163.45
2019-01-27T22:27:24.665Z,95161.09
2019-01-27T22:29:26.247Z,95156.73
2019-01-27T22:31:27.842Z,95155.83
2019-01-27T22:33:29.483Z,95157.95
2019-01-27T22:35:31.091Z,95158.36
2019-01-27T22:37:32.708Z,95152.11
2019-01-27T22:39:34.333Z,95154.94
2019-01-27T22:41:35.939Z,95149.02
2019-01-27T22:43:37.533Z,95150.04
2019-01-27T22:45:39.154Z,95159.34
2019-01-27T22:47:40.754Z,95158.70
2019-01-27T22:49:42.363Z,95157.12
2019-01-27T22:51:43.966Z,95151.20
2019-01-27T22:53:45.552Z,95163.30
2019-01-27T22:55:47.200Z,95161.23
2019-01-27T22:57:48.806Z,95153.70
2019-01-27T22:59:50.401Z,95149.47
2019-01-27T23:01:52.063Z,95144.28
2019-01-27T23:03:53.657Z,95146.17
2019-01-27T23:05:55.257Z,95138.88
2019-01-27T23:07:56.879Z,95140.65
2019-01-27T23:09:58.491Z,95142.34
2019-01-27T23:12:00.103Z,95141.06
2019-01-27T23:14:01.706Z,95142.70
2019-01-27T23:16:03.301Z,95146.91
2019-01-27T23:18:04.908Z,95150.54
2019-01-27T23:20:06.553Z,95151.11
2019-01-27T23:22:08.149Z,95153.78
2019-01-27T23:24:09.763Z,95157.65
2019-01-27T23:26:11.353Z,95158.35
2019-01-27T23:28:12.936Z,95156.33
2019-01-27T23:30:14.529Z,95158.47
2019-01-27T23:32:16.159Z,95154.94
2019-01-27T23:34:17.775Z,95149.38
2019-01-27T23:36:19.432Z,95149.22
2019-01-27T23:38:21.030Z,95151.36
2019-01-27T23:40:22.635Z,95151.73
2019-01-27T23:42:24.269Z,95167.45
2019-01-27T23:44:25.866Z,95165.36
2019-01-27T23:46:27.477Z,95157.78
2019-01-27T23:48:29.073Z,95172.80
2019-01-27T23:50:30.679Z,95165.77
2019-01-27T23:52:32.285Z,95171.41
2019-01-27T23:54:33.905Z,95177.84
2019-01-27T23:56:35.497Z,95182.61
2019-01-27T23:58:37.089Z,95183.22
